Time;durP1;ratioP1;P1;durP2;ratioP2;P2;SDS_P1;SDS_P2;PMS_P1;PMS_P2;Temp;Humidity;BMP_temperature;BMP_pressure;BME280_temperature;BME280_humidity;BME280_pressure;Samples;Min_cycle;Max_cycle;Signal;HPM_P1;HPM_P2
2021/12/30 00:01:04;;;;;;;1.40;1.10;;;;;;;12.87;89.37;99580.47;4952399;28;20215;-90
2021/12/30 00:03:30;;;;;;;1.30;1.20;;;;;;;12.87;89.16;99584.91;4949645;28;20330;-91
2021/12/30 00:05:55;;;;;;;1.10;1.00;;;;;;;12.84;89.09;99583.31;4952877;28;20248;-91
2021/12/30 00:08:22;;;;;;;1.27;1.17;;;;;;;12.83;89.32;99586.94;4950791;28;20239;-91
2021/12/30 00:10:48;;;;;;;1.65;1.17;;;;;;;12.81;89.20;99596.75;4954762;28;20200;-90
2021/12/30 00:13:15;;;;;;;1.75;1.30;;;;;;;12.79;89.27;99593.38;4958761;28;20767;-89
2021/12/30 00:15:40;;;;;;;1.23;1.13;;;;;;;12.78;89.28;99594.34;4954172;28;20266;-91
2021/12/30 00:18:09;;;;;;;1.47;1.37;;;;;;;12.75;89.34;99605.94;4955722;28;20476;-91
2021/12/30 00:20:35;;;;;;;1.45;1.35;;;;;;;12.74;89.37;99600.75;4960925;28;20223;-91
2021/12/30 00:23:06;;;;;;;1.52;1.30;;;;;;;12.72;89.30;99606.16;4960147;28;20294;-90
2021/12/30 00:25:38;;;;;;;1.40;1.30;;;;;;;12.70;89.44;99613.34;4976958;28;20200;-90
2021/12/30 00:28:09;;;;;;;1.67;1.35;;;;;;;12.67;89.49;99615.34;4974978;28;20315;-91
2021/12/30 00:30:35;;;;;;;2.45;2.25;;;;;;;12.63;89.46;99620.81;4952273;28;20552;-90
2021/12/30 00:33:00;;;;;;;1.30;1.20;;;;;;;12.62;89.48;99616.50;4946980;28;20216;-90
2021/12/30 00:35:26;;;;;;;1.40;1.30;;;;;;;12.61;89.55;99614.84;4942383;28;20208;-90
2021/12/30 00:37:55;;;;;;;1.13;1.03;;;;;;;12.59;89.53;99621.19;4956541;28;20216;-90
2021/12/30 00:40:20;;;;;;;1.15;1.05;;;;;;;12.58;89.42;99614.19;4950012;28;20503;-91
2021/12/30 00:42:46;;;;;;;1.40;1.30;;;;;;;12.56;89.49;99614.31;4959570;28;20235;-91
2021/12/30 00:45:12;;;;;;;1.50;1.40;;;;;;;12.55;89.43;99612.63;4969030;28;20235;-91
2021/12/30 00:47:40;;;;;;;1.25;1.15;;;;;;;12.56;89.53;99608.22;4966466;28;20232;-90
2021/12/30 00:50:06;;;;;;;1.48;1.38;;;;;;;12.56;89.43;99614.31;4971279;28;20747;-90
2021/12/30 00:52:31;;;;;;;1.37;1.27;;;;;;;12.56;89.33;99611.69;4975754;28;20610;-90
2021/12/30 00:54:57;;;;;;;2.10;1.07;;;;;;;12.58;89.30;99624.75;4976778;28;20463;-90
2021/12/30 00:57:25;;;;;;;1.30;1.20;;;;;;;12.59;89.33;99642.25;4971348;28;20205;-91
2021/12/30 00:59:50;;;;;;;1.47;1.27;;;;;;;12.58;89.19;99641.41;4974700;28;20203;-91
2021/12/30 01:02:16;;;;;;;1.90;1.70;;;;;;;12.71;88.97;99641.34;4943391;28;21253;-90
2021/12/30 01:04:42;;;;;;;2.13;1.50;;;;;;;12.68;88.81;99646.84;4940986;28;21193;-90
2021/12/30 01:07:09;;;;;;;1.50;1.30;;;;;;;12.67;88.87;99650.44;4969136;28;20208;-90
2021/12/30 01:09:35;;;;;;;1.40;1.23;;;;;;;12.66;88.78;99653.19;4972307;28;20231;-92
2021/12/30 01:12:07;;;;;;;1.83;1.73;;;;;;;12.66;88.85;99653.19;4958930;28;20192;-91
2021/12/30 01:14:35;;;;;;;2.00;1.45;;;;;;;12.65;88.65;99662.88;4972655;28;20212;-91
2021/12/30 01:17:15;;;;;;;1.85;1.35;;;;;;;12.65;88.67;99662.06;4963248;28;20205;-90
2021/12/30 01:19:44;;;;;;;1.85;1.30;;;;;;;12.63;88.72;99664.78;4969869;28;20195;-90
2021/12/30 01:22:27;;;;;;;1.15;1.10;;;;;;;12.63;88.58;99665.63;4963941;28;20211;-92
2021/12/30 01:24:54;;;;;;;1.25;1.15;;;;;;;12.62;88.57;99668.38;4953942;28;20205;-89
2021/12/30 01:27:20;;;;;;;1.25;1.15;;;;;;;12.60;88.57;99671.13;4943854;28;20208;-91
2021/12/30 01:29:47;;;;;;;1.80;1.40;;;;;;;12.59;88.63;99679.97;4952893;28;20247;-90
2021/12/30 01:32:13;;;;;;;1.42;1.33;;;;;;;12.59;88.64;99671.25;4952501;28;20266;-91
2021/12/30 01:34:38;;;;;;;1.47;1.37;;;;;;;12.58;88.43;99669.53;4949136;28;20247;-90
2021/12/30 01:37:05;;;;;;;2.60;1.50;;;;;;;12.57;88.38;99666.06;4952138;28;20234;-91
2021/12/30 01:39:34;;;;;;;1.20;1.10;;;;;;;12.59;88.40;99679.16;4941885;28;20780;-91
2021/12/30 01:42:00;;;;;;;2.60;1.10;;;;;;;12.58;88.06;99686.22;4938691;28;20704;-90
2021/12/30 01:44:29;;;;;;;3.30;1.40;;;;;;;12.61;88.18;99691.25;4938171;28;20337;-90
2021/12/30 01:46:56;;;;;;;2.65;1.30;;;;;;;12.63;88.15;99694.59;4953930;28;20459;-91
2021/12/30 01:49:23;;;;;;;0.93;0.93;;;;;;;12.66;88.11;99693.53;4939101;28;20658;-90
2021/12/30 01:51:52;;;;;;;1.30;1.10;;;;;;;12.69;88.05;99692.50;4956297;28;20208;-91
2021/12/30 01:54:18;;;;;;;1.40;1.10;;;;;;;12.72;88.00;99700.19;4957736;28;20464;-90
2021/12/30 01:56:45;;;;;;;1.03;0.93;;;;;;;12.74;87.94;99703.56;4939003;28;21018;-90
2021/12/30 01:59:11;;;;;;;1.20;1.10;;;;;;;12.75;87.74;99703.47;4955699;28;20223;-91
2021/12/30 02:01:37;;;;;;;1.30;1.20;;;;;;;12.76;87.76;99693.75;4954641;28;20212;-91
2021/12/30 02:04:02;;;;;;;1.00;0.90;;;;;;;12.77;87.84;99705.97;4956624;28;20219;-91
2021/12/30 02:06:28;;;;;;;1.20;1.10;;;;;;;12.77;87.76;99703.31;4954862;28;20803;-91
2021/12/30 02:08:54;;;;;;;1.43;1.17;;;;;;;12.79;87.83;99693.53;4957347;28;20231;-91
2021/12/30 02:11:20;;;;;;;0.90;0.90;;;;;;;12.80;87.72;99697.88;4940854;28;20807;-90
2021/12/30 02:13:57;;;;;;;1.10;1.10;;;;;;;12.81;87.67;99691.63;4958253;28;20473;-91
2021/12/30 02:16:23;;;;;;;1.00;1.00;;;;;;;12.81;87.70;99699.53;4957808;28;20741;-91
2021/12/30 02:18:52;;;;;;;1.85;1.15;;;;;;;12.82;87.66;99694.13;4956802;28;20204;-91
2021/12/30 02:21:18;;;;;;;1.15;1.02;;;;;;;12.84;87.70;99688.78;4949251;28;20836;-90
2021/12/30 02:23:49;;;;;;;1.07;1.03;;;;;;;12.87;87.61;99685.91;4952867;28;20269;-91
2021/12/30 02:26:17;;;;;;;0.80;0.80;;;;;;;12.87;87.61;99685.91;4955648;28;20961;-91
2021/12/30 02:28:44;;;;;;;1.00;0.90;;;;;;;12.89;87.58;99685.81;4932839;28;20640;-91
2021/12/30 02:31:16;;;;;;;1.17;1.08;;;;;;;12.90;87.40;99693.59;4958684;28;20210;-91
2021/12/30 02:33:47;;;;;;;1.13;1.13;;;;;;;12.90;87.40;99690.97;4962229;28;20270;-91
2021/12/30 02:36:14;;;;;;;1.10;1.10;;;;;;;12.92;87.34;99702.25;4961871;28;20250;-90
2021/12/30 02:38:45;;;;;;;1.10;1.00;;;;;;;12.95;87.22;99717.00;4942611;28;20370;-93
2021/12/30 02:41:17;;;;;;;1.25;1.15;;;;;;;12.96;87.19;99714.28;4957263;28;20740;-89
2021/12/30 02:43:49;;;;;;;1.58;1.00;;;;;;;13.00;87.22;99714.88;4961929;28;20262;-90
2021/12/30 02:46:23;;;;;;;0.90;0.90;;;;;;;13.02;87.01;99710.34;4957312;28;20330;-90
2021/12/30 02:48:52;;;;;;;0.98;0.98;;;;;;;13.04;86.74;99708.41;4959990;28;20216;-90
2021/12/30 02:51:19;;;;;;;0.93;0.90;;;;;;;13.05;86.75;99718.03;4959689;28;20214;-91
2021/12/30 02:53:45;;;;;;;0.80;0.80;;;;;;;13.05;86.68;99704.84;4952883;28;20212;-90
2021/12/30 02:56:11;;;;;;;1.20;1.03;;;;;;;13.06;86.71;99704.72;4941370;28;20207;-91
2021/12/30 02:58:36;;;;;;;1.10;1.00;;;;;;;13.06;86.55;99704.72;4959797;28;20274;-91
2021/12/30 03:01:07;;;;;;;1.83;1.00;;;;;;;13.05;86.58;99705.69;4960504;28;20227;-91
2021/12/30 03:03:32;;;;;;;1.25;1.10;;;;;;;13.07;86.54;99701.16;4964389;28;20219;-90
2021/12/30 03:06:00;;;;;;;1.20;1.10;;;;;;;13.08;86.53;99707.25;4959261;28;20212;-91
2021/12/30 03:08:26;;;;;;;0.90;0.90;;;;;;;13.10;86.39;99704.53;4958297;28;20192;-90
2021/12/30 03:10:52;;;;;;;1.75;0.95;;;;;;;13.10;86.36;99704.53;4962061;28;20263;-91
2021/12/30 03:13:25;;;;;;;1.03;1.03;;;;;;;13.10;86.31;99705.34;4955322;28;20666;-90
2021/12/30 03:15:53;;;;;;;0.90;0.90;;;;;;;13.11;86.32;99706.19;4962655;28;20279;-89
2021/12/30 03:18:19;;;;;;;1.13;0.95;;;;;;;13.12;86.29;99713.13;4966112;28;20204;-90
2021/12/30 03:20:48;;;;;;;1.00;0.90;;;;;;;13.13;86.20;99712.22;4965061;28;20267;-91
2021/12/30 03:23:17;;;;;;;1.10;0.88;;;;;;;13.14;86.23;99719.16;4965128;28;20192;-90
2021/12/30 03:25:42;;;;;;;1.00;0.97;;;;;;;13.14;86.17;99719.16;4963715;28;20284;-91
2021/12/30 03:28:07;;;;;;;1.00;0.90;;;;;;;13.14;86.07;99721.78;4964674;28;20240;-91
2021/12/30 03:30:33;;;;;;;1.20;1.10;;;;;;;13.16;85.90;99720.72;4943682;28;20199;-90
2021/12/30 03:33:02;;;;;;;0.80;0.80;;;;;;;13.17;85.77;99724.19;4966284;28;20908;-91
2021/12/30 03:35:27;;;;;;;1.00;1.00;;;;;;;13.18;85.81;99733.81;4949350;28;20213;-91
2021/12/30 03:37:53;;;;;;;0.90;0.90;;;;;;;13.19;85.72;99740.75;4958672;28;20256;-90
2021/12/30 03:40:19;;;;;;;1.40;0.83;;;;;;;13.20;85.43;99735.34;4936924;28;20248;-90
2021/12/30 03:42:45;;;;;;;1.07;1.07;;;;;;;13.22;85.65;99740.53;4963186;28;20232;-90
2021/12/30 03:45:16;;;;;;;1.02;0.93;;;;;;;13.22;85.37;99738.75;4964420;28;20470;-90
2021/12/30 03:47:44;;;;;;;0.90;0.90;;;;;;;13.23;85.28;99742.22;4962650;28;20235;-90
2021/12/30 03:50:18;;;;;;;1.02;1.00;;;;;;;13.25;85.37;99748.22;4961905;28;20200;-90
2021/12/30 03:52:48;;;;;;;0.90;0.90;;;;;;;13.25;85.29;99743.78;4963488;28;20220;-91
2021/12/30 03:55:17;;;;;;;0.95;0.95;;;;;;;13.27;85.10;99754.28;4962008;28;20196;-91
2021/12/30 03:57:43;;;;;;;2.28;0.90;;;;;;;13.27;84.90;99751.63;4944989;28;20621;-91
2021/12/30 04:00:10;;;;;;;0.90;0.90;;;;;;;13.30;84.97;99767.25;4943715;28;20437;-91
2021/12/30 04:02:38;;;;;;;1.20;1.10;;;;;;;13.42;84.87;99768.13;4959781;28;20482;-91
2021/12/30 04:05:05;;;;;;;0.90;0.90;;;;;;;13.40;84.65;99775.34;4965444;28;20323;-89
2021/12/30 04:07:33;;;;;;;1.15;1.05;;;;;;;13.38;84.69;99786.00;4940007;28;20263;-89
2021/12/30 04:09:59;;;;;;;1.00;1.00;;;;;;;13.37;84.40;99778.22;4957396;28;20215;-90
2021/12/30 04:12:24;;;;;;;1.43;1.10;;;;;;;13.37;84.47;99775.56;4957936;28;20212;-89
2021/12/30 04:14:50;;;;;;;1.00;1.00;;;;;;;13.37;84.45;99771.13;4944808;28;20973;-90
2021/12/30 04:17:18;;;;;;;0.90;0.90;;;;;;;13.35;84.44;99773.03;4958473;28;20208;-90
2021/12/30 04:19:44;;;;;;;1.03;1.00;;;;;;;13.35;84.26;99778.31;4957626;28;20329;-89
2021/12/30 04:22:09;;;;;;;1.63;1.03;;;;;;;13.33;84.38;99779.38;4959339;28;20232;-90
2021/12/30 04:24:35;;;;;;;1.00;0.90;;;;;;;13.33;84.19;99771.44;4958581;28;20204;-91
2021/12/30 04:27:00;;;;;;;1.03;1.00;;;;;;;13.32;84.33;99782.97;4948457;28;20215;-90
2021/12/30 04:29:26;;;;;;;1.20;1.10;;;;;;;13.33;84.17;99787.28;4958154;28;20266;-90
2021/12/30 04:31:52;;;;;;;1.07;1.03;;;;;;;13.32;84.17;99788.25;4953744;28;20204;-91
2021/12/30 04:34:17;;;;;;;0.90;0.90;;;;;;;13.33;84.23;99796.03;4955854;28;20210;-90
2021/12/30 04:36:43;;;;;;;1.00;1.00;;;;;;;13.32;84.17;99799.63;4952528;28;20776;-89
2021/12/30 04:39:09;;;;;;;0.98;0.90;;;;;;;13.35;84.03;99806.50;4960143;28;20244;-88
2021/12/30 04:41:38;;;;;;;1.73;1.13;;;;;;;13.34;84.08;99805.66;4954767;28;20251;-88
2021/12/30 04:44:04;;;;;;;1.30;1.20;;;;;;;13.33;84.13;99806.59;4956507;28;21004;-88
2021/12/30 04:46:30;;;;;;;1.10;1.00;;;;;;;13.34;84.16;99812.69;4952965;28;20270;-90
2021/12/30 04:48:55;;;;;;;1.30;1.20;;;;;;;13.35;84.02;99814.41;4961221;28;20480;-89
2021/12/30 04:51:21;;;;;;;1.20;1.10;;;;;;;13.35;83.99;99822.31;4963427;28;20204;-90
2021/12/30 04:53:49;;;;;;;2.17;1.33;;;;;;;13.35;83.98;99823.16;4962984;28;20212;-90
2021/12/30 04:56:15;;;;;;;1.02;0.93;;;;;;;13.34;84.04;99824.13;4953055;28;20239;-89
2021/12/30 04:58:41;;;;;;;0.93;0.93;;;;;;;13.34;84.01;99816.19;4961640;28;20211;-89
2021/12/30 05:01:11;;;;;;;1.20;1.10;;;;;;;13.34;83.86;99817.97;4959557;28;20200;-89
2021/12/30 05:03:39;;;;;;;0.90;0.90;;;;;;;13.33;84.13;99814.50;4959801;28;20674;-89
2021/12/30 05:06:11;;;;;;;1.30;0.95;;;;;;;13.35;83.87;99825.78;4963730;28;20216;-90
2021/12/30 05:08:37;;;;;;;2.45;1.20;;;;;;;13.36;83.87;99819.56;4939981;28;20212;-89
2021/12/30 05:11:04;;;;;;;1.07;1.00;;;;;;;13.36;83.98;99824.00;4958948;28;20919;-89
2021/12/30 05:13:30;;;;;;;1.30;1.20;;;;;;;13.36;83.90;99835.38;4951330;28;20212;-89
2021/12/30 05:15:56;;;;;;;1.30;1.10;;;;;;;13.34;84.13;99833.81;4949842;28;20226;-90
2021/12/30 05:18:29;;;;;;;1.07;1.00;;;;;;;13.35;84.04;99846.06;4961816;28;20228;-89
2021/12/30 05:20:55;;;;;;;1.42;1.17;;;;;;;13.36;84.01;99848.56;4960130;28;20216;-89
2021/12/30 05:23:21;;;;;;;1.07;1.00;;;;;;;13.36;83.93;99837.19;4961503;28;20211;-89
2021/12/30 05:25:46;;;;;;;2.70;0.83;;;;;;;13.40;83.71;99849.22;4966400;28;20767;-89
2021/12/30 05:28:12;;;;;;;1.00;0.90;;;;;;;13.40;83.57;99844.78;4962954;28;20340;-90
2021/12/30 05:30:38;;;;;;;1.03;0.93;;;;;;;13.40;83.68;99847.41;4961403;28;20204;-89
2021/12/30 05:33:09;;;;;;;1.10;1.00;;;;;;;13.40;83.73;99849.22;4961101;28;20204;-88
2021/12/30 05:35:40;;;;;;;1.85;1.75;;;;;;;13.40;83.80;99859.78;4961499;28;20235;-89
2021/12/30 05:38:05;;;;;;;1.40;1.30;;;;;;;13.40;83.83;99865.06;4962600;28;20212;-89
2021/12/30 05:40:32;;;;;;;8.17;4.43;;;;;;;13.40;83.75;99859.78;4959226;28;20529;-89
2021/12/30 05:43:01;;;;;;;9.90;6.85;;;;;;;13.38;83.96;99861.66;4962134;28;21130;-90
2021/12/30 05:45:27;;;;;;;6.80;4.78;;;;;;;13.38;83.92;99862.50;4959092;28;20212;-90
2021/12/30 05:47:55;;;;;;;4.10;3.20;;;;;;;13.39;84.09;99865.97;4959130;28;20266;-90
2021/12/30 05:50:30;;;;;;;4.13;3.03;;;;;;;13.40;83.81;99868.53;4957184;28;20295;-89
2021/12/30 05:52:56;;;;;;;1.45;1.35;;;;;;;13.40;83.73;99875.59;4940004;28;20204;-89
2021/12/30 05:55:21;;;;;;;2.43;1.97;;;;;;;13.40;83.82;99887.00;4959443;28;20214;-89
2021/12/30 05:57:49;;;;;;;2.53;2.23;;;;;;;13.41;83.61;99879.91;4955438;28;20235;-90
2021/12/30 06:00:18;;;;;;;4.10;3.08;;;;;;;13.40;83.62;99887.00;4955455;28;20685;-91
2021/12/30 06:02:46;;;;;;;11.85;7.28;;;;;;;13.44;83.63;99885.81;4960741;28;20662;-89
2021/12/30 06:05:13;;;;;;;2.55;2.08;;;;;;;13.45;83.35;99892.78;4960640;28;20212;-91
2021/12/30 06:07:44;;;;;;;10.00;5.68;;;;;;;13.47;83.09;99900.59;4958358;28;20303;-88
2021/12/30 06:10:11;;;;;;;2.30;1.85;;;;;;;13.48;83.26;99905.75;4960796;28;20314;-89
2021/12/30 06:12:37;;;;;;;1.30;1.20;;;;;;;13.47;83.04;99904.09;4961405;28;20212;-89
2021/12/30 06:15:04;;;;;;;2.78;2.10;;;;;;;13.51;82.96;99907.34;4962258;28;20239;-88
2021/12/30 06:17:30;;;;;;;4.47;2.45;;;;;;;13.52;82.93;99905.53;4961050;28;20247;-88
2021/12/30 06:19:56;;;;;;;2.90;1.60;;;;;;;13.53;82.90;99909.84;4958046;28;20240;-89
2021/12/30 06:22:26;;;;;;;4.23;2.80;;;;;;;13.52;82.92;99910.81;4960093;28;20226;-88
2021/12/30 06:24:52;;;;;;;5.55;4.15;;;;;;;13.51;82.89;99907.34;4955155;28;20840;-88
2021/12/30 06:27:18;;;;;;;2.20;1.97;;;;;;;13.52;82.97;99916.09;4957095;28;20204;-88
2021/12/30 06:29:43;;;;;;;1.00;1.00;;;;;;;13.52;82.88;99916.09;4955435;28;20305;-89
2021/12/30 06:32:08;;;;;;;0.97;0.97;;;;;;;13.51;82.85;99915.25;4957608;28;20466;-89
2021/12/30 06:34:35;;;;;;;0.90;0.90;;;;;;;13.53;82.85;99912.50;4955174;28;20370;-88
2021/12/30 06:37:00;;;;;;;1.33;1.10;;;;;;;13.53;82.70;99907.22;4956627;28;20285;-88
2021/12/30 06:39:26;;;;;;;1.10;1.00;;;;;;;13.54;82.87;99914.19;4947851;28;20939;-88
2021/12/30 06:41:51;;;;;;;1.80;1.70;;;;;;;13.55;82.81;99913.25;4957556;28;20259;-89
2021/12/30 06:44:17;;;;;;;1.17;1.07;;;;;;;13.53;82.76;99913.38;4956312;28;20280;-89
2021/12/30 06:46:53;;;;;;;1.20;0.90;;;;;;;13.52;82.88;99919.56;4955300;28;20254;-89
2021/12/30 06:49:19;;;;;;;1.05;0.95;;;;;;;13.51;82.91;99923.19;4956299;28;20687;-88
2021/12/30 06:51:44;;;;;;;0.90;0.90;;;;;;;13.53;82.91;99929.19;4959582;28;20329;-88
2021/12/30 06:54:10;;;;;;;1.00;0.90;;;;;;;13.54;82.89;99925.59;4958243;28;20408;-89
2021/12/30 06:56:39;;;;;;;1.00;1.00;;;;;;;13.53;82.92;99933.59;4954520;28;20204;-89
2021/12/30 06:59:04;;;;;;;0.82;0.82;;;;;;;13.54;83.00;99935.31;4958385;28;20207;-89
2021/12/30 07:01:30;;;;;;;1.63;1.00;;;;;;;13.53;82.94;99936.25;4956696;28;20753;-89
2021/12/30 07:03:57;;;;;;;0.97;0.80;;;;;;;13.52;83.00;99938.06;4961287;28;20223;-90
2021/12/30 07:06:25;;;;;;;2.05;0.85;;;;;;;13.53;83.13;99938.88;4958406;28;20216;-89
2021/12/30 07:08:51;;;;;;;0.90;0.90;;;;;;;13.53;82.99;99941.53;4960778;28;20212;-90
2021/12/30 07:11:16;;;;;;;1.20;1.10;;;;;;;13.53;82.84;99944.16;4960168;28;20223;-89
2021/12/30 07:13:42;;;;;;;0.80;0.80;;;;;;;13.51;82.91;99944.28;4964041;28;20224;-89
2021/12/30 07:16:10;;;;;;;0.90;0.90;;;;;;;13.48;83.15;99950.63;4979093;28;20290;-90
2021/12/30 07:18:35;;;;;;;1.40;1.30;;;;;;;13.48;83.36;99950.63;4980107;28;20227;-88
2021/12/30 07:21:01;;;;;;;0.87;0.83;;;;;;;13.47;83.28;99954.22;4981046;28;20229;-89
2021/12/30 07:23:26;;;;;;;1.20;1.10;;;;;;;13.46;83.31;99962.25;4974327;28;20226;-88
2021/12/30 07:25:52;;;;;;;1.43;1.33;;;;;;;13.47;83.41;99966.56;4963651;28;20224;-89
2021/12/30 07:28:18;;;;;;;1.63;1.52;;;;;;;13.50;83.26;99971.63;4949756;28;20212;-88
2021/12/30 07:30:43;;;;;;;1.35;1.25;;;;;;;13.50;83.42;99975.13;4964092;28;20985;-89
2021/12/30 07:33:12;;;;;;;2.00;1.40;;;;;;;13.50;83.43;99977.75;4963036;28;20270;-90
2021/12/30 07:35:37;;;;;;;1.33;1.20;;;;;;;13.49;83.47;99973.41;4965118;28;20204;-89
2021/12/30 07:38:04;;;;;;;2.00;1.03;;;;;;;13.50;83.53;99984.81;4958893;28;20461;-89
2021/12/30 07:40:33;;;;;;;1.00;1.00;;;;;;;13.50;83.38;99977.75;4979122;28;20259;-90
2021/12/30 07:42:58;;;;;;;1.20;1.10;;;;;;;13.49;83.73;99976.06;4959811;28;20252;-89
2021/12/30 07:45:24;;;;;;;1.50;1.00;;;;;;;13.54;83.31;99981.03;4945960;28;20628;-89
2021/12/30 07:47:53;;;;;;;1.40;1.10;;;;;;;13.55;83.48;99990.63;4950107;28;20219;-89
2021/12/30 07:50:22;;;;;;;1.10;1.00;;;;;;;13.58;83.39;100002.75;4962261;28;20239;-89
2021/12/30 07:52:54;;;;;;;1.30;1.20;;;;;;;13.56;83.44;99997.59;4955823;28;20609;-90
2021/12/30 07:55:20;;;;;;;1.10;1.00;;;;;;;13.56;83.58;99997.59;4958193;28;20239;-90
2021/12/30 07:57:49;;;;;;;0.90;0.90;;;;;;;13.55;83.60;99998.53;4960605;28;20554;-89
2021/12/30 08:00:17;;;;;;;1.08;0.98;;;;;;;13.57;83.66;100003.72;4952032;28;20449;-89
2021/12/30 08:02:46;;;;;;;1.10;1.05;;;;;;;13.57;83.50;100001.06;4958187;28;20209;-90
2021/12/30 08:05:15;;;;;;;0.90;0.80;;;;;;;13.58;83.55;100008.88;4958528;28;20733;-89
2021/12/30 08:07:41;;;;;;;1.00;1.00;;;;;;;13.58;83.55;100014.16;4960833;28;20299;-89
2021/12/30 08:10:12;;;;;;;1.10;1.00;;;;;;;13.60;83.65;100021.97;4938474;28;20197;-89
2021/12/30 08:12:43;;;;;;;1.30;1.20;;;;;;;13.62;83.70;100028.00;4954589;28;20212;-89
2021/12/30 08:15:09;;;;;;;0.90;0.90;;;;;;;13.62;83.74;100030.63;4955425;28;20208;-89
2021/12/30 08:17:35;;;;;;;1.55;1.10;;;;;;;13.62;83.60;100031.47;4955474;28;20310;-89
2021/12/30 08:20:04;;;;;;;1.20;1.08;;;;;;;13.63;83.57;100040.22;4954987;28;20201;-88
2021/12/30 08:22:32;;;;;;;1.35;1.02;;;;;;;13.63;83.62;100034.97;4952362;28;20634;-89
2021/12/30 08:25:01;;;;;;;1.10;1.00;;;;;;;13.65;83.60;100033.06;4956383;28;20203;-89
2021/12/30 08:27:27;;;;;;;1.63;1.10;;;;;;;13.64;83.47;100032.22;4946883;28;20212;-89
2021/12/30 08:29:54;;;;;;;1.30;1.23;;;;;;;13.63;83.63;100033.16;4939267;28;20217;-89
2021/12/30 08:32:19;;;;;;;1.10;1.00;;;;;;;13.66;83.51;100040.00;4948853;28;20206;-89
2021/12/30 08:34:46;;;;;;;1.20;1.10;;;;;;;13.69;83.50;100039.81;4943731;28;20212;-90
2021/12/30 08:37:15;;;;;;;1.15;1.02;;;;;;;13.69;83.36;100043.31;4955463;28;20207;-90
2021/12/30 08:39:42;;;;;;;1.40;1.00;;;;;;;13.70;83.27;100037.06;4957665;28;20721;-88
2021/12/30 08:42:27;;;;;;;1.10;0.90;;;;;;;13.71;83.35;100043.19;4957527;28;20310;-89
2021/12/30 08:44:55;;;;;;;1.30;1.20;;;;;;;13.73;83.34;100057.13;4956515;28;20934;-89
2021/12/30 08:47:22;;;;;;;1.70;0.90;;;;;;;13.73;83.21;100051.84;4955245;28;20219;-90
2021/12/30 08:49:49;;;;;;;1.45;0.95;;;;;;;13.75;83.24;100054.41;4938160;28;20451;-89
2021/12/30 08:52:18;;;;;;;1.20;1.10;;;;;;;13.76;83.28;100054.28;4956586;28;20222;-89
2021/12/30 08:54:45;;;;;;;1.20;1.10;;;;;;;13.77;83.23;100048.06;4957656;28;20196;-89
2021/12/30 08:57:11;;;;;;;1.23;1.10;;;;;;;13.78;83.00;100059.47;4939149;28;20262;-89
2021/12/30 08:59:37;;;;;;;1.85;1.30;;;;;;;13.79;83.34;100056.69;4959120;28;20208;-88
2021/12/30 09:02:04;;;;;;;3.00;2.40;;;;;;;13.79;83.22;100051.41;4956924;28;20649;-89
2021/12/30 09:04:33;;;;;;;1.35;1.20;;;;;;;13.78;83.46;100048.91;4941204;28;20204;-88
2021/12/30 09:07:00;;;;;;;1.67;1.00;;;;;;;13.78;83.32;100056.81;4951143;28;20240;-88
2021/12/30 09:09:26;;;;;;;3.88;1.52;;;;;;;13.79;83.24;100051.41;4947954;28;20347;-89
2021/12/30 09:11:52;;;;;;;1.05;0.95;;;;;;;13.81;83.18;100054.81;4956571;28;20563;-89
2021/12/30 09:14:18;;;;;;;1.40;1.20;;;;;;;13.83;83.10;100047.63;4962840;28;20304;-88
2021/12/30 09:16:48;;;;;;;1.10;1.00;;;;;;;13.85;83.16;100051.00;4957191;28;20474;-88
2021/12/30 09:19:17;;;;;;;1.20;1.10;;;;;;;13.88;82.90;100060.47;4959226;28;20246;-89
2021/12/30 09:21:46;;;;;;;1.27;1.08;;;;;;;13.90;82.72;100055.94;4956983;28;20247;-89
2021/12/30 09:24:11;;;;;;;1.30;1.20;;;;;;;13.92;82.76;100046.97;4953837;28;20762;-88
2021/12/30 09:26:40;;;;;;;1.10;1.00;;;;;;;13.95;82.66;100037.97;4931194;28;20599;-89
2021/12/30 09:29:10;;;;;;;1.35;0.80;;;;;;;13.97;82.62;100045.81;4945052;28;20598;-89
2021/12/30 09:31:44;;;;;;;1.10;1.00;;;;;;;14.00;82.28;100048.22;4958225;28;20683;-87
2021/12/30 09:34:10;;;;;;;1.00;1.00;;;;;;;14.05;82.32;100054.03;4956924;28;20751;-87
2021/12/30 09:36:36;;;;;;;1.20;1.10;;;;;;;14.10;81.74;100047.47;4954083;28;20204;-88
2021/12/30 09:39:07;;;;;;;1.05;0.95;;;;;;;14.15;81.41;100034.78;4955986;28;20519;-88
2021/12/30 09:41:37;;;;;;;1.15;1.05;;;;;;;14.20;81.43;100049.44;4955283;28;20907;-87
2021/12/30 09:44:11;;;;;;;1.40;1.10;;;;;;;14.21;81.36;100049.34;4955414;28;20824;-87
2021/12/30 09:46:37;;;;;;;1.42;0.95;;;;;;;14.25;81.34;100056.06;4955298;28;20204;-87
2021/12/30 09:49:05;;;;;;;1.10;1.00;;;;;;;14.26;81.26;100057.78;4948441;28;20654;-86
2021/12/30 09:51:36;;;;;;;1.23;1.13;;;;;;;14.27;81.35;100054.19;4953438;28;20211;-87
2021/12/30 09:54:03;;;;;;;0.90;0.90;;;;;;;14.29;81.35;100060.19;4951560;28;20204;-87
2021/12/30 09:56:30;;;;;;;0.93;0.93;;;;;;;14.28;81.11;100047.94;4953102;28;20202;-87
2021/12/30 09:58:58;;;;;;;1.20;0.98;;;;;;;14.31;81.11;100041.56;4954259;28;20579;-88
2021/12/30 10:01:24;;;;;;;1.20;1.10;;;;;;;14.36;81.18;100040.28;4951177;28;20987;-87
2021/12/30 10:03:55;;;;;;;1.40;1.30;;;;;;;14.38;80.95;100038.38;4952557;28;20638;-86
2021/12/30 10:06:20;;;;;;;1.02;1.02;;;;;;;14.38;80.63;100032.25;4953987;28;20200;-87
2021/12/30 10:09:05;;;;;;;0.90;0.90;;;;;;;14.42;80.78;100048.72;4954179;28;20259;-86
2021/12/30 10:11:43;;;;;;;1.50;1.00;;;;;;;14.42;80.66;100046.09;4954040;28;20215;-88
2021/12/30 10:14:08;;;;;;;0.90;0.90;;;;;;;14.41;80.41;100047.06;4952203;28;20211;-87
2021/12/30 10:16:34;;;;;;;0.90;0.90;;;;;;;14.41;80.51;100047.06;4936184;28;20250;-86
2021/12/30 10:19:05;;;;;;;1.27;1.17;;;;;;;14.42;80.40;100054.00;4953230;28;20208;-88
2021/12/30 10:21:39;;;;;;;1.33;1.10;;;;;;;14.40;80.40;100054.16;4952431;28;20315;-87
2021/12/30 10:24:07;;;;;;;1.30;1.20;;;;;;;14.41;80.37;100042.59;4955557;28;20204;-87
2021/12/30 10:26:58;;;;;;;1.27;1.17;;;;;;;14.44;79.99;100042.38;4953707;28;20208;-88
2021/12/30 10:29:25;;;;;;;0.95;0.90;;;;;;;14.46;80.02;100042.28;4956335;28;20212;-86
2021/12/30 10:31:53;;;;;;;1.55;1.40;;;;;;;14.54;80.03;100038.16;4949060;28;20534;-87
2021/12/30 10:34:20;;;;;;;0.95;0.95;;;;;;;14.57;79.78;100047.66;4955756;28;20242;-87
2021/12/30 10:36:50;;;;;;;1.50;1.20;;;;;;;14.58;79.47;100038.75;4955000;28;20235;-88
2021/12/30 10:39:24;;;;;;;1.40;1.30;;;;;;;14.59;79.27;100040.47;4960658;28;20248;-88
2021/12/30 10:41:52;;;;;;;1.20;1.10;;;;;;;14.57;79.26;100037.09;4955129;28;20296;-88
2021/12/30 10:44:19;;;;;;;1.50;1.40;;;;;;;14.57;79.54;100035.28;4958078;28;20769;-89
2021/12/30 10:46:48;;;;;;;1.20;1.10;;;;;;;14.57;79.19;100039.72;4924531;28;20197;-88
2021/12/30 10:49:22;;;;;;;1.13;1.02;;;;;;;14.58;79.24;100041.41;4942169;28;20290;-88
2021/12/30 10:51:51;;;;;;;1.98;1.00;;;;;;;14.62;79.27;100036.75;4938825;28;20211;-88
2021/12/30 10:54:19;;;;;;;1.20;1.00;;;;;;;14.66;79.13;100040.84;4956763;28;20258;-87
2021/12/30 10:57:01;;;;;;;1.10;1.00;;;;;;;14.73;79.02;100037.63;4937336;28;20290;-88
2021/12/30 10:59:35;;;;;;;1.40;0.90;;;;;;;14.83;78.56;100035.16;4957869;28;20235;-88
2021/12/30 11:02:16;;;;;;;0.90;0.90;;;;;;;14.88;78.15;100040.09;4957175;28;20226;-88
2021/12/30 11:04:43;;;;;;;1.10;1.10;;;;;;;14.98;78.23;100041.09;4930702;28;20226;-88
2021/12/30 11:07:15;;;;;;;1.73;1.30;;;;;;;15.12;78.08;100042.69;4957992;28;20208;-88
2021/12/30 11:09:47;;;;;;;1.05;0.98;;;;;;;15.22;77.38;100033.09;4957456;28;20211;-88
2021/12/30 11:12:13;;;;;;;1.20;1.10;;;;;;;15.27;77.09;100046.84;4958055;28;20725;-88
2021/12/30 11:14:44;;;;;;;0.80;0.80;;;;;;;15.29;77.18;100038.78;4958861;28;20212;-89
2021/12/30 11:17:35;;;;;;;0.90;0.90;;;;;;;15.27;76.75;100042.38;4944806;28;20455;-87
2021/12/30 11:20:24;;;;;;;1.35;1.25;;;;;;;15.24;76.97;100034.69;4961553;28;20200;-88
2021/12/30 11:22:49;;;;;;;1.27;1.10;;;;;;;15.21;77.10;100024.31;4954212;28;20221;-87
2021/12/30 11:25:20;;;;;;;2.90;1.10;;;;;;;15.23;76.96;100034.81;4960558;28;20216;-88
2021/12/30 11:27:46;;;;;;;2.45;1.38;;;;;;;15.21;77.10;100031.44;4951030;28;20331;-88
2021/12/30 11:30:17;;;;;;;1.40;1.17;;;;;;;15.22;77.25;100043.69;4960367;28;20246;-89
2021/12/30 11:32:48;;;;;;;1.10;1.00;;;;;;;15.21;76.81;100032.28;4956702;28;20206;-88
2021/12/30 11:35:15;;;;;;;4.32;1.35;;;;;;;15.17;77.12;100032.59;4936722;28;20196;-87